Terminal Aerodrome Forecast
Issued by NWS

Home | Current Version | Previous Version | Text Only | Print | Product List | Glossary On
Versions: 1 2 3 4 5 6 7 8 9 10 11 12 13 14 15 16 17 18 19 20
000
FTUS42 KGSP 221740
TAFAND
TAF
KAND 221740Z 2218/2318 25004KT P6SM SCT020
     FM221930 29004KT P6SM VCTS BKN060CB
      TEMPO 2220/2224 VRB10G20KT 3SM -TSRA OVC040CB
     FM230300 VRB02KT P6SM VCSH OVC035 PROB30 2303/2306 4SM -TSRA
      OVC025CB
     FM230600 00000KT 4SM SHRA BR OVC008=

USA.gov is the U.S. government's official web portal to all federal, state and local government web resources and services.